createdAt,value
2017-08-25T00:00:13.309Z,2.90
2017-08-25T00:05:30.411Z,2.70
2017-08-25T00:10:46.853Z,2.07
2017-08-25T00:16:03.274Z,1.93
2017-08-25T00:21:04.929Z,5.23
2017-08-25T00:26:07.240Z,4.90
2017-08-25T00:31:08.913Z,2.30
2017-08-25T00:36:10.586Z,6.43
2017-08-25T00:41:12.233Z,6.30
2017-08-25T00:46:13.909Z,4.00
2017-08-25T00:51:15.492Z,14.63
2017-08-25T00:56:18.481Z,6.67
2017-08-25T01:01:20.180Z,6.00
2017-08-25T01:06:21.785Z,3.50
2017-08-25T01:11:23.994Z,3.53
2017-08-25T01:16:26.429Z,3.43
2017-08-25T01:21:28.919Z,4.13
2017-08-25T01:26:30.590Z,3.57
2017-08-25T01:31:32.264Z,4.90
2017-08-25T01:36:34.039Z,3.43
2017-08-25T01:41:35.672Z,7.47
2017-08-25T01:46:37.349Z,2.90
2017-08-25T01:51:39.057Z,4.70
2017-08-25T01:56:41.906Z,5.50
2017-08-25T02:01:43.631Z,6.47
2017-08-25T02:06:46.284Z,8.33
2017-08-25T02:11:47.998Z,7.10
2017-08-25T02:16:49.630Z,4.90
2017-08-25T02:21:51.325Z,9.90
2017-08-25T02:26:53.019Z,3.50
2017-08-25T02:31:54.869Z,2.63
2017-08-25T02:37:11.963Z,6.00
2017-08-25T02:42:28.435Z,3.73
2017-08-25T02:47:45.246Z,4.30
2017-08-25T02:52:48.761Z,8.73
2017-08-25T02:57:54.832Z,5.30
2017-08-25T03:03:11.283Z,5.37
2017-08-25T03:08:12.944Z,5.63
2017-08-25T03:13:29.343Z,7.13
2017-08-25T03:18:31.034Z,5.17
2017-08-25T03:23:32.701Z,4.50
2017-08-25T03:28:35.277Z,5.87
2017-08-25T03:33:37.094Z,9.67
2017-08-25T03:38:38.767Z,7.10
2017-08-25T03:43:40.440Z,6.20
2017-08-25T03:48:42.090Z,8.17
2017-08-25T03:53:44.315Z,4.50
2017-08-25T03:58:46.627Z,6.77
2017-08-25T04:03:49.614Z,6.30
2017-08-25T04:08:52.084Z,6.63
2017-08-25T04:13:53.724Z,6.33
2017-08-25T04:18:55.432Z,4.63
2017-08-25T04:23:57.099Z,6.17
2017-08-25T04:28:58.771Z,7.20
2017-08-25T04:34:00.646Z,4.77
2017-08-25T04:39:02.526Z,4.73
2017-08-25T04:44:07.238Z,6.27
2017-08-25T04:49:09.125Z,4.80
2017-08-25T04:54:10.781Z,10.47
2017-08-25T04:59:14.234Z,7.53
2017-08-25T05:04:16.213Z,5.17
2017-08-25T05:09:17.887Z,6.67
2017-08-25T05:14:19.866Z,9.90
2017-08-25T05:19:21.519Z,10.13
2017-08-25T05:24:23.388Z,4.43
2017-08-25T05:29:25.053Z,5.00
2017-08-25T05:34:27.378Z,6.10
2017-08-25T05:39:29.254Z,12.10
2017-08-25T05:44:35.111Z,9.37
2017-08-25T05:49:37.530Z,5.63
2017-08-25T05:54:40.763Z,9.03
2017-08-25T05:59:42.703Z,8.10
2017-08-25T06:04:46.630Z,5.37
2017-08-25T06:09:48.301Z,8.13
2017-08-25T06:14:50.160Z,5.97
2017-08-25T06:19:52.475Z,11.37
2017-08-25T06:24:55.738Z,6.40
2017-08-25T06:29:58.166Z,7.70
2017-08-25T06:34:59.800Z,9.10
2017-08-25T06:40:01.615Z,10.93
2017-08-25T06:45:04.107Z,10.83
2017-08-25T06:50:05.984Z,7.70
2017-08-25T06:55:07.617Z,6.67
2017-08-25T07:00:10.080Z,9.97
2017-08-25T07:05:11.782Z,8.03
2017-08-25T07:10:15.201Z,9.60
2017-08-25T07:15:16.908Z,14.50
2017-08-25T07:20:19.198Z,8.33
2017-08-25T07:25:20.868Z,7.77
2017-08-25T07:30:23.547Z,9.60
2017-08-25T07:35:25.202Z,12.00
2017-08-25T07:40:27.094Z,7.90
2017-08-25T07:45:28.772Z,7.63
2017-08-25T07:50:30.646Z,7.50
2017-08-25T07:55:32.338Z,11.90
2017-08-25T08:00:34.625Z,9.40
2017-08-25T08:05:36.296Z,11.83
2017-08-25T08:10:40.222Z,13.90
2017-08-25T08:15:41.869Z,11.00
2017-08-25T08:20:44.803Z,16.13
2017-08-25T08:25:46.470Z,8.90
2017-08-25T08:30:48.117Z,8.33
2017-08-25T08:35:49.815Z,8.40
2017-08-25T08:40:51.575Z,7.90
2017-08-25T08:45:53.569Z,7.53
2017-08-25T08:50:55.756Z,8.10
2017-08-25T08:55:57.513Z,8.30
2017-08-25T09:00:59.509Z,12.07
2017-08-25T09:06:08.119Z,7.00
2017-08-25T09:11:09.820Z,6.70
2017-08-25T09:16:11.492Z,6.07
2017-08-25T09:21:13.371Z,5.80
2017-08-25T09:26:15.225Z,6.20
2017-08-25T09:31:16.920Z,8.50
2017-08-25T09:36:19.336Z,7.40
2017-08-25T09:41:21.186Z,6.70
2017-08-25T09:46:23.168Z,8.00
2017-08-25T09:51:26.068Z,6.43
2017-08-25T09:56:27.845Z,12.93
2017-08-25T10:01:30.411Z,9.13
2017-08-25T10:06:32.294Z,7.53
2017-08-25T10:11:34.273Z,6.90
2017-08-25T10:16:35.949Z,6.03
2017-08-25T10:21:37.846Z,6.60
2017-08-25T10:26:40.647Z,12.43
2017-08-25T10:31:42.706Z,14.67
2017-08-25T10:36:56.586Z,3.80
2017-08-25T10:42:11.574Z,12.67
2017-08-25T10:47:13.421Z,6.97
2017-08-25T10:52:15.121Z,6.67
2017-08-25T10:57:16.782Z,8.30
2017-08-25T11:02:18.671Z,6.10
2017-08-25T11:07:20.318Z,3.70
2017-08-25T11:12:22.021Z,3.73
2017-08-25T11:17:23.665Z,5.60
2017-08-25T11:22:25.340Z,6.20
2017-08-25T11:27:27.960Z,6.67
2017-08-25T11:32:29.629Z,7.60
2017-08-25T11:37:31.302Z,5.37
2017-08-25T11:42:33.059Z,7.70
2017-08-25T11:47:34.824Z,3.50
2017-08-25T11:52:36.525Z,5.90
2017-08-25T11:57:38.381Z,5.30
2017-08-25T12:02:40.278Z,10.93
2017-08-25T12:07:41.931Z,9.70
2017-08-25T12:12:44.731Z,4.50
2017-08-25T12:17:46.396Z,4.47
2017-08-25T12:22:48.173Z,7.40
2017-08-25T12:27:49.877Z,8.30
2017-08-25T12:32:52.999Z,11.23
2017-08-25T12:37:54.625Z,9.77
2017-08-25T12:42:56.326Z,11.17
2017-08-25T12:47:58.202Z,5.80
2017-08-25T12:52:59.869Z,9.13
2017-08-25T12:58:01.513Z,4.50
2017-08-25T13:03:03.180Z,6.73
2017-08-25T13:08:05.073Z,8.50
2017-08-25T13:13:06.770Z,10.57
2017-08-25T13:18:08.443Z,5.60
2017-08-25T13:23:10.095Z,6.30
2017-08-25T13:28:11.790Z,5.37
2017-08-25T13:33:13.462Z,11.20
2017-08-25T13:38:15.134Z,8.33
2017-08-25T13:43:16.807Z,11.37
2017-08-25T13:48:18.429Z,6.83
2017-08-25T13:53:20.126Z,9.43
2017-08-25T13:58:21.902Z,5.90
2017-08-25T14:03:23.584Z,8.17
2017-08-25T14:08:26.501Z,6.93
2017-08-25T14:13:28.154Z,11.00
2017-08-25T14:18:29.825Z,10.17
2017-08-25T14:23:31.522Z,8.10
2017-08-25T14:28:33.268Z,9.70
2017-08-25T14:33:34.948Z,10.50
2017-08-25T14:38:36.626Z,6.70
2017-08-25T14:43:38.314Z,15.13
2017-08-25T14:48:40.091Z,12.50
2017-08-25T14:53:41.716Z,8.23
2017-08-25T14:58:45.026Z,9.13
2017-08-25T15:03:46.724Z,10.83
2017-08-25T15:08:48.419Z,11.30
2017-08-25T15:13:50.077Z,10.03
2017-08-25T15:18:51.867Z,10.57
2017-08-25T15:23:53.616Z,14.40
2017-08-25T15:28:55.314Z,11.83
2017-08-25T15:33:56.966Z,12.10
2017-08-25T15:38:58.644Z,9.10
2017-08-25T15:44:00.317Z,8.70
2017-08-25T15:49:01.990Z,17.80
2017-08-25T15:54:03.883Z,10.97
2017-08-25T15:59:05.557Z,13.10
2017-08-25T16:04:07.234Z,9.40
2017-08-25T16:09:08.902Z,10.17
2017-08-25T16:14:10.528Z,8.47
2017-08-25T16:19:12.330Z,9.57
2017-08-25T16:24:15.024Z,13.70
2017-08-25T16:29:17.729Z,13.50
2017-08-25T16:34:19.373Z,17.93
2017-08-25T16:39:21.094Z,10.30
2017-08-25T16:44:22.738Z,10.43
2017-08-25T16:49:24.380Z,9.17
2017-08-25T16:54:26.109Z,9.33
2017-08-25T16:59:27.883Z,11.90
2017-08-25T17:04:29.761Z,16.03
2017-08-25T17:09:31.393Z,25.80
2017-08-25T17:14:33.033Z,29.73
2017-08-25T17:19:34.963Z,22.90
2017-08-25T17:24:38.678Z,13.70
2017-08-25T17:29:40.332Z,10.17
2017-08-25T17:34:42.474Z,10.40
2017-08-25T17:39:44.049Z,13.90
2017-08-25T17:44:45.808Z,16.70
2017-08-25T17:49:47.478Z,16.47
2017-08-25T17:54:49.076Z,14.47
2017-08-25T17:59:50.823Z,13.03
2017-08-25T18:04:52.468Z,13.50
2017-08-25T18:09:54.141Z,12.00
2017-08-25T18:14:55.807Z,12.33
2017-08-25T18:19:57.446Z,14.90
2017-08-25T18:25:00.391Z,17.77
2017-08-25T18:30:02.025Z,11.47
2017-08-25T18:35:03.732Z,8.60
2017-08-25T18:40:05.405Z,10.90
2017-08-25T18:45:08.060Z,8.80
2017-08-25T18:50:10.827Z,16.33
2017-08-25T18:55:12.500Z,10.97
2017-08-25T19:00:15.199Z,9.20
2017-08-25T19:05:17.998Z,8.90
2017-08-25T19:10:19.669Z,8.50
2017-08-25T19:15:21.341Z,11.93
2017-08-25T19:20:23.067Z,5.53
2017-08-25T19:25:24.776Z,5.93
2017-08-25T19:30:26.463Z,6.73
2017-08-25T19:35:28.105Z,8.80
2017-08-25T19:40:29.807Z,6.40
2017-08-25T19:45:32.298Z,6.57
2017-08-25T19:50:33.950Z,10.17
2017-08-25T19:55:35.644Z,6.13
2017-08-25T20:00:37.272Z,12.73
2017-08-25T20:05:38.991Z,7.10
2017-08-25T20:10:40.640Z,13.33
2017-08-25T20:15:42.274Z,7.20
2017-08-25T20:20:43.928Z,7.50
2017-08-25T20:25:45.681Z,11.03
2017-08-25T20:30:47.765Z,5.30
2017-08-25T20:35:49.540Z,4.40
2017-08-25T20:40:51.267Z,5.17
2017-08-25T20:45:52.963Z,5.27
2017-08-25T20:50:54.633Z,4.30
2017-08-25T20:55:56.330Z,4.83
2017-08-25T21:00:57.950Z,7.33
2017-08-25T21:05:59.676Z,11.43
2017-08-25T21:11:01.351Z,7.10
2017-08-25T21:16:03.023Z,8.80
2017-08-25T21:21:04.678Z,7.80
2017-08-25T21:26:06.344Z,7.83
2017-08-25T21:31:07.974Z,7.10
2017-08-25T21:36:09.718Z,5.43
2017-08-25T21:41:12.369Z,6.97
2017-08-25T21:46:15.104Z,6.87
2017-08-25T21:51:16.882Z,7.03
2017-08-25T21:56:19.345Z,5.37
2017-08-25T22:01:21.323Z,6.13
2017-08-25T22:06:24.020Z,6.53
2017-08-25T22:11:26.728Z,7.50
2017-08-25T22:16:28.525Z,9.50
2017-08-25T22:21:30.228Z,10.67
2017-08-25T22:26:31.846Z,12.20
2017-08-25T22:31:33.424Z,11.00
2017-08-25T22:36:36.238Z,12.60
2017-08-25T22:41:37.986Z,12.63
2017-08-25T22:46:40.128Z,12.23
2017-08-25T22:51:41.766Z,17.07
2017-08-25T22:56:44.205Z,15.67
2017-08-25T23:01:46.937Z,18.17
2017-08-25T23:06:48.629Z,22.23
2017-08-25T23:11:51.596Z,24.00
2017-08-25T23:16:53.408Z,26.67
2017-08-25T23:21:55.059Z,28.57
2017-08-25T23:26:56.986Z,28.70
2017-08-25T23:31:59.623Z,28.90
2017-08-25T23:37:01.326Z,31.40
2017-08-25T23:42:02.999Z,58.63
2017-08-25T23:47:04.728Z,45.50
2017-08-25T23:52:06.448Z,48.20
2017-08-25T23:57:08.119Z,46.40
